sensor_id;sensor_type;location;lat;lon;timestamp;temperature;humidity
11083;DHT22;5595;50.186;8.468;2023-06-04T00:02:19;14.80;53.90
11083;DHT22;5595;50.186;8.468;2023-06-04T00:04:46;14.80;53.90
11083;DHT22;5595;50.186;8.468;2023-06-04T00:07:13;14.80;54.00
11083;DHT22;5595;50.186;8.468;2023-06-04T00:09:40;14.70;54.00
11083;DHT22;5595;50.186;8.468;2023-06-04T00:12:07;14.70;54.10
11083;DHT22;5595;50.186;8.468;2023-06-04T00:14:34;14.70;54.10
11083;DHT22;5595;50.186;8.468;2023-06-04T00:17:02;14.70;54.10
11083;DHT22;5595;50.186;8.468;2023-06-04T00:19:30;14.70;54.10
11083;DHT22;5595;50.186;8.468;2023-06-04T00:21:57;14.60;54.10
11083;DHT22;5595;50.186;8.468;2023-06-04T00:24:23;14.70;54.10
11083;DHT22;5595;50.186;8.468;2023-06-04T00:26:50;14.70;54.10
11083;DHT22;5595;50.186;8.468;2023-06-04T00:29:17;14.70;54.60
11083;DHT22;5595;50.186;8.468;2023-06-04T00:31:44;14.70;54.10
11083;DHT22;5595;50.186;8.468;2023-06-04T00:34:12;14.60;54.10
11083;DHT22;5595;50.186;8.468;2023-06-04T00:36:39;14.60;54.20
11083;DHT22;5595;50.186;8.468;2023-06-04T00:39:06;14.60;54.10
11083;DHT22;5595;50.186;8.468;2023-06-04T00:41:33;14.60;54.10
11083;DHT22;5595;50.186;8.468;2023-06-04T00:43:59;14.60;54.10
11083;DHT22;5595;50.186;8.468;2023-06-04T00:46:28;14.60;54.10
11083;DHT22;5595;50.186;8.468;2023-06-04T00:48:56;14.50;54.10
11083;DHT22;5595;50.186;8.468;2023-06-04T00:51:25;14.50;54.10
11083;DHT22;5595;50.186;8.468;2023-06-04T00:53:52;14.50;54.20
11083;DHT22;5595;50.186;8.468;2023-06-04T00:56:19;14.50;54.00
11083;DHT22;5595;50.186;8.468;2023-06-04T00:58:46;14.60;54.10
11083;DHT22;5595;50.186;8.468;2023-06-04T01:01:20;14.60;54.00
11083;DHT22;5595;50.186;8.468;2023-06-04T01:03:50;14.60;53.90
11083;DHT22;5595;50.186;8.468;2023-06-04T01:06:22;14.60;53.80
11083;DHT22;5595;50.186;8.468;2023-06-04T01:08:53;14.60;53.70
11083;DHT22;5595;50.186;8.468;2023-06-04T01:11:33;14.70;53.50
11083;DHT22;5595;50.186;8.468;2023-06-04T01:14:01;14.70;53.30
11083;DHT22;5595;50.186;8.468;2023-06-04T01:16:32;14.70;53.20
11083;DHT22;5595;50.186;8.468;2023-06-04T01:19:02;14.70;53.30
11083;DHT22;5595;50.186;8.468;2023-06-04T01:21:35;14.60;53.00
11083;DHT22;5595;50.186;8.468;2023-06-04T01:24:07;14.70;53.10
11083;DHT22;5595;50.186;8.468;2023-06-04T01:26:34;14.70;53.00
11083;DHT22;5595;50.186;8.468;2023-06-04T01:29:02;14.70;53.00
11083;DHT22;5595;50.186;8.468;2023-06-04T01:31:30;14.70;53.00
11083;DHT22;5595;50.186;8.468;2023-06-04T01:33:58;14.70;53.00
11083;DHT22;5595;50.186;8.468;2023-06-04T01:36:25;14.70;53.00
11083;DHT22;5595;50.186;8.468;2023-06-04T01:38:52;14.70;53.00
11083;DHT22;5595;50.186;8.468;2023-06-04T01:41:21;14.70;53.00
11083;DHT22;5595;50.186;8.468;2023-06-04T01:43:50;14.70;53.00
11083;DHT22;5595;50.186;8.468;2023-06-04T01:46:17;14.70;53.00
11083;DHT22;5595;50.186;8.468;2023-06-04T01:48:44;14.60;53.00
11083;DHT22;5595;50.186;8.468;2023-06-04T01:51:14;14.70;53.00
11083;DHT22;5595;50.186;8.468;2023-06-04T01:53:41;14.70;53.00
11083;DHT22;5595;50.186;8.468;2023-06-04T01:56:07;14.70;53.00
11083;DHT22;5595;50.186;8.468;2023-06-04T01:58:36;14.60;53.00
11083;DHT22;5595;50.186;8.468;2023-06-04T02:01:02;14.60;53.00
11083;DHT22;5595;50.186;8.468;2023-06-04T02:03:30;14.60;53.00
11083;DHT22;5595;50.186;8.468;2023-06-04T02:06:02;14.70;53.00
11083;DHT22;5595;50.186;8.468;2023-06-04T02:08:29;14.60;53.00
11083;DHT22;5595;50.186;8.468;2023-06-04T02:10:58;14.60;53.00
11083;DHT22;5595;50.186;8.468;2023-06-04T02:13:25;14.60;53.00
11083;DHT22;5595;50.186;8.468;2023-06-04T02:15:54;14.60;53.00
11083;DHT22;5595;50.186;8.468;2023-06-04T02:18:21;14.50;52.90
11083;DHT22;5595;50.186;8.468;2023-06-04T02:20:49;14.50;52.90
11083;DHT22;5595;50.186;8.468;2023-06-04T02:23:17;14.40;52.80
11083;DHT22;5595;50.186;8.468;2023-06-04T02:25:44;14.40;53.10
11083;DHT22;5595;50.186;8.468;2023-06-04T02:28:12;14.40;53.20
11083;DHT22;5595;50.186;8.468;2023-06-04T02:30:39;14.50;53.20
11083;DHT22;5595;50.186;8.468;2023-06-04T02:33:07;14.40;53.10
11083;DHT22;5595;50.186;8.468;2023-06-04T02:35:35;14.40;53.10
11083;DHT22;5595;50.186;8.468;2023-06-04T02:38:02;14.40;53.20
11083;DHT22;5595;50.186;8.468;2023-06-04T02:40:29;14.40;53.20
11083;DHT22;5595;50.186;8.468;2023-06-04T02:42:56;14.40;52.80
11083;DHT22;5595;50.186;8.468;2023-06-04T02:45:24;14.50;52.90
11083;DHT22;5595;50.186;8.468;2023-06-04T02:47:51;14.60;53.00
11083;DHT22;5595;50.186;8.468;2023-06-04T02:50:19;14.50;52.80
11083;DHT22;5595;50.186;8.468;2023-06-04T02:52:46;14.50;52.90
11083;DHT22;5595;50.186;8.468;2023-06-04T02:55:13;14.50;52.90
11083;DHT22;5595;50.186;8.468;2023-06-04T02:57:41;14.50;52.90
11083;DHT22;5595;50.186;8.468;2023-06-04T03:00:09;14.50;52.90
11083;DHT22;5595;50.186;8.468;2023-06-04T03:02:42;14.40;52.80
11083;DHT22;5595;50.186;8.468;2023-06-04T03:05:11;14.40;52.80
11083;DHT22;5595;50.186;8.468;2023-06-04T03:07:41;14.40;52.80
11083;DHT22;5595;50.186;8.468;2023-06-04T03:10:11;14.40;52.80
11083;DHT22;5595;50.186;8.468;2023-06-04T03:12:38;14.40;52.80
11083;DHT22;5595;50.186;8.468;2023-06-04T03:15:06;14.40;52.80
11083;DHT22;5595;50.186;8.468;2023-06-04T03:17:33;14.40;52.80
11083;DHT22;5595;50.186;8.468;2023-06-04T03:20:00;14.30;52.70
11083;DHT22;5595;50.186;8.468;2023-06-04T03:22:27;14.30;52.70
11083;DHT22;5595;50.186;8.468;2023-06-04T03:24:58;14.40;52.80
11083;DHT22;5595;50.186;8.468;2023-06-04T03:27:25;14.40;52.80
11083;DHT22;5595;50.186;8.468;2023-06-04T03:29:51;14.40;52.80
11083;DHT22;5595;50.186;8.468;2023-06-04T03:32:18;14.40;52.80
11083;DHT22;5595;50.186;8.468;2023-06-04T03:34:45;14.40;52.80
11083;DHT22;5595;50.186;8.468;2023-06-04T03:37:12;14.40;52.80
11083;DHT22;5595;50.186;8.468;2023-06-04T03:39:39;14.40;52.80
11083;DHT22;5595;50.186;8.468;2023-06-04T03:42:07;14.40;52.80
11083;DHT22;5595;50.186;8.468;2023-06-04T03:44:34;14.40;52.80
11083;DHT22;5595;50.186;8.468;2023-06-04T03:47:01;14.40;52.80
11083;DHT22;5595;50.186;8.468;2023-06-04T03:49:28;14.40;52.80
11083;DHT22;5595;50.186;8.468;2023-06-04T03:51:55;14.50;52.90
11083;DHT22;5595;50.186;8.468;2023-06-04T03:54:22;14.40;52.80
11083;DHT22;5595;50.186;8.468;2023-06-04T03:56:49;14.50;52.90
11083;DHT22;5595;50.186;8.468;2023-06-04T03:59:17;14.50;52.80
11083;DHT22;5595;50.186;8.468;2023-06-04T04:01:44;14.50;52.80
11083;DHT22;5595;50.186;8.468;2023-06-04T04:04:10;14.50;52.80
11083;DHT22;5595;50.186;8.468;2023-06-04T04:06:38;14.60;52.90
11083;DHT22;5595;50.186;8.468;2023-06-04T04:09:05;14.60;52.90
11083;DHT22;5595;50.186;8.468;2023-06-04T04:11:32;14.50;52.90
11083;DHT22;5595;50.186;8.468;2023-06-04T04:13:59;14.60;53.00
11083;DHT22;5595;50.186;8.468;2023-06-04T04:16:29;14.60;53.00
11083;DHT22;5595;50.186;8.468;2023-06-04T04:18:56;14.60;53.00
11083;DHT22;5595;50.186;8.468;2023-06-04T04:21:22;14.50;52.90
11083;DHT22;5595;50.186;8.468;2023-06-04T04:23:50;14.60;52.90
11083;DHT22;5595;50.186;8.468;2023-06-04T04:26:18;14.60;53.00
11083;DHT22;5595;50.186;8.468;2023-06-04T04:28:44;14.60;53.00
11083;DHT22;5595;50.186;8.468;2023-06-04T04:31:11;14.60;53.00
11083;DHT22;5595;50.186;8.468;2023-06-04T04:33:40;14.60;53.00
11083;DHT22;5595;50.186;8.468;2023-06-04T04:36:07;14.50;52.90
11083;DHT22;5595;50.186;8.468;2023-06-04T04:38:38;14.60;53.10
11083;DHT22;5595;50.186;8.468;2023-06-04T04:41:05;14.60;53.00
11083;DHT22;5595;50.186;8.468;2023-06-04T04:43:35;14.60;53.00
11083;DHT22;5595;50.186;8.468;2023-06-04T04:46:03;14.70;53.00
11083;DHT22;5595;50.186;8.468;2023-06-04T04:48:30;14.70;53.00
11083;DHT22;5595;50.186;8.468;2023-06-04T04:50:58;14.70;53.00
11083;DHT22;5595;50.186;8.468;2023-06-04T04:53:26;14.80;53.10
11083;DHT22;5595;50.186;8.468;2023-06-04T04:55:52;14.80;53.00
11083;DHT22;5595;50.186;8.468;2023-06-04T04:58:22;14.90;53.00
11083;DHT22;5595;50.186;8.468;2023-06-04T05:00:54;15.00;52.90
11083;DHT22;5595;50.186;8.468;2023-06-04T05:03:21;15.30;53.00
11083;DHT22;5595;50.186;8.468;2023-06-04T05:05:47;15.30;52.60
11083;DHT22;5595;50.186;8.468;2023-06-04T05:08:16;15.40;52.60
11083;DHT22;5595;50.186;8.468;2023-06-04T05:10:43;15.50;52.60
11083;DHT22;5595;50.186;8.468;2023-06-04T05:13:10;15.60;52.60
11083;DHT22;5595;50.186;8.468;2023-06-04T05:15:36;15.70;52.30
11083;DHT22;5595;50.186;8.468;2023-06-04T05:18:05;15.80;52.20
11083;DHT22;5595;50.186;8.468;2023-06-04T05:20:33;15.90;52.30
11083;DHT22;5595;50.186;8.468;2023-06-04T05:23:03;15.90;51.80
11083;DHT22;5595;50.186;8.468;2023-06-04T05:25:31;16.00;51.80
11083;DHT22;5595;50.186;8.468;2023-06-04T05:27:58;16.00;51.70
11083;DHT22;5595;50.186;8.468;2023-06-04T05:30:25;16.00;51.60
11083;DHT22;5595;50.186;8.468;2023-06-04T05:32:52;16.00;51.60
11083;DHT22;5595;50.186;8.468;2023-06-04T05:35:19;16.10;51.50
11083;DHT22;5595;50.186;8.468;2023-06-04T05:37:46;16.10;51.60
11083;DHT22;5595;50.186;8.468;2023-06-04T05:40:19;16.20;51.70
11083;DHT22;5595;50.186;8.468;2023-06-04T05:42:47;16.20;51.60
11083;DHT22;5595;50.186;8.468;2023-06-04T05:45:14;16.30;51.60
11083;DHT22;5595;50.186;8.468;2023-06-04T05:47:41;16.30;51.30
11083;DHT22;5595;50.186;8.468;2023-06-04T05:50:09;16.40;51.20
11083;DHT22;5595;50.186;8.468;2023-06-04T05:52:36;16.40;51.00
11083;DHT22;5595;50.186;8.468;2023-06-04T05:55:03;16.50;51.20
11083;DHT22;5595;50.186;8.468;2023-06-04T05:57:33;16.60;51.20
11083;DHT22;5595;50.186;8.468;2023-06-04T06:00:01;16.60;50.50
11083;DHT22;5595;50.186;8.468;2023-06-04T06:02:28;16.60;50.50
11083;DHT22;5595;50.186;8.468;2023-06-04T06:04:57;16.70;50.60
11083;DHT22;5595;50.186;8.468;2023-06-04T06:07:24;16.80;50.60
11083;DHT22;5595;50.186;8.468;2023-06-04T06:09:51;16.90;50.50
11083;DHT22;5595;50.186;8.468;2023-06-04T06:12:18;17.00;50.60
11083;DHT22;5595;50.186;8.468;2023-06-04T06:14:44;17.00;50.20
11083;DHT22;5595;50.186;8.468;2023-06-04T06:17:13;17.10;50.40
11083;DHT22;5595;50.186;8.468;2023-06-04T06:19:40;17.20;50.30
11083;DHT22;5595;50.186;8.468;2023-06-04T06:22:07;17.20;49.40
11083;DHT22;5595;50.186;8.468;2023-06-04T06:24:33;17.20;49.50
11083;DHT22;5595;50.186;8.468;2023-06-04T06:27:00;17.30;49.60
11083;DHT22;5595;50.186;8.468;2023-06-04T06:29:27;17.40;49.60
11083;DHT22;5595;50.186;8.468;2023-06-04T06:31:55;17.50;49.60
11083;DHT22;5595;50.186;8.468;2023-06-04T06:34:23;17.50;48.50
11083;DHT22;5595;50.186;8.468;2023-06-04T06:36:50;17.50;48.40
11083;DHT22;5595;50.186;8.468;2023-06-04T06:39:16;17.50;48.60
11083;DHT22;5595;50.186;8.468;2023-06-04T06:41:43;17.60;48.90
11083;DHT22;5595;50.186;8.468;2023-06-04T06:44:10;17.60;48.70
11083;DHT22;5595;50.186;8.468;2023-06-04T06:46:37;17.70;48.70
11083;DHT22;5595;50.186;8.468;2023-06-04T06:49:04;17.70;48.80
11083;DHT22;5595;50.186;8.468;2023-06-04T06:51:32;17.80;48.20
11083;DHT22;5595;50.186;8.468;2023-06-04T06:54:00;17.90;48.60
11083;DHT22;5595;50.186;8.468;2023-06-04T06:56:26;17.90;48.10
11083;DHT22;5595;50.186;8.468;2023-06-04T06:58:53;17.90;47.90
11083;DHT22;5595;50.186;8.468;2023-06-04T07:01:20;18.00;48.00
11083;DHT22;5595;50.186;8.468;2023-06-04T07:03:47;18.00;47.70
11083;DHT22;5595;50.186;8.468;2023-06-04T07:06:14;18.10;47.60
11083;DHT22;5595;50.186;8.468;2023-06-04T07:08:42;18.10;47.80
11083;DHT22;5595;50.186;8.468;2023-06-04T07:11:09;18.20;48.00
11083;DHT22;5595;50.186;8.468;2023-06-04T07:13:37;18.30;48.20
11083;DHT22;5595;50.186;8.468;2023-06-04T07:16:04;18.40;48.60
11083;DHT22;5595;50.186;8.468;2023-06-04T07:18:31;18.50;48.70
11083;DHT22;5595;50.186;8.468;2023-06-04T07:20:59;18.60;48.00
11083;DHT22;5595;50.186;8.468;2023-06-04T07:23:25;18.60;47.70
11083;DHT22;5595;50.186;8.468;2023-06-04T07:25:54;18.50;47.80
11083;DHT22;5595;50.186;8.468;2023-06-04T07:28:21;18.50;47.80
11083;DHT22;5595;50.186;8.468;2023-06-04T07:30:48;18.40;47.80
11083;DHT22;5595;50.186;8.468;2023-06-04T07:33:14;18.50;48.20
11083;DHT22;5595;50.186;8.468;2023-06-04T07:35:41;18.70;48.60
11083;DHT22;5595;50.186;8.468;2023-06-04T07:38:08;18.70;48.40
11083;DHT22;5595;50.186;8.468;2023-06-04T07:40:35;18.80;48.60
11083;DHT22;5595;50.186;8.468;2023-06-04T07:43:03;18.90;48.90
11083;DHT22;5595;50.186;8.468;2023-06-04T07:45:30;19.00;48.90
11083;DHT22;5595;50.186;8.468;2023-06-04T07:47:56;19.00;49.20
11083;DHT22;5595;50.186;8.468;2023-06-04T07:50:24;19.20;49.30
11083;DHT22;5595;50.186;8.468;2023-06-04T07:52:50;19.30;49.80
11083;DHT22;5595;50.186;8.468;2023-06-04T07:55:17;19.40;49.30
11083;DHT22;5595;50.186;8.468;2023-06-04T07:57:44;19.40;49.80
11083;DHT22;5595;50.186;8.468;2023-06-04T08:00:13;19.40;48.60
11083;DHT22;5595;50.186;8.468;2023-06-04T08:02:43;19.50;48.80
11083;DHT22;5595;50.186;8.468;2023-06-04T08:05:10;19.50;48.60
11083;DHT22;5595;50.186;8.468;2023-06-04T08:07:39;19.70;47.90
11083;DHT22;5595;50.186;8.468;2023-06-04T08:10:06;19.70;47.00
11083;DHT22;5595;50.186;8.468;2023-06-04T08:12:33;19.60;47.10
11083;DHT22;5595;50.186;8.468;2023-06-04T08:15:00;19.50;47.40
11083;DHT22;5595;50.186;8.468;2023-06-04T08:17:28;19.60;47.40
11083;DHT22;5595;50.186;8.468;2023-06-04T08:19:56;19.70;47.10
11083;DHT22;5595;50.186;8.468;2023-06-04T08:22:22;19.70;47.10
11083;DHT22;5595;50.186;8.468;2023-06-04T08:24:49;19.90;47.40
11083;DHT22;5595;50.186;8.468;2023-06-04T08:27:16;19.90;46.80
11083;DHT22;5595;50.186;8.468;2023-06-04T08:29:43;20.00;47.00
11083;DHT22;5595;50.186;8.468;2023-06-04T08:32:10;20.00;47.20
11083;DHT22;5595;50.186;8.468;2023-06-04T08:34:38;20.10;47.10
11083;DHT22;5595;50.186;8.468;2023-06-04T08:37:06;20.10;46.40
11083;DHT22;5595;50.186;8.468;2023-06-04T08:39:32;20.00;46.10
11083;DHT22;5595;50.186;8.468;2023-06-04T08:42:00;20.10;46.20
11083;DHT22;5595;50.186;8.468;2023-06-04T08:44:28;20.20;46.50
11083;DHT22;5595;50.186;8.468;2023-06-04T08:47:01;20.30;46.90
11083;DHT22;5595;50.186;8.468;2023-06-04T08:49:29;20.50;46.80
11083;DHT22;5595;50.186;8.468;2023-06-04T08:52:00;20.50;46.60
11083;DHT22;5595;50.186;8.468;2023-06-04T08:54:28;20.50;46.20
11083;DHT22;5595;50.186;8.468;2023-06-04T08:56:56;20.40;46.20
11083;DHT22;5595;50.186;8.468;2023-06-04T08:59:25;20.40;46.50
11083;DHT22;5595;50.186;8.468;2023-06-04T09:01:53;20.60;46.70
11083;DHT22;5595;50.186;8.468;2023-06-04T09:04:21;20.60;45.90
11083;DHT22;5595;50.186;8.468;2023-06-04T09:06:48;20.50;46.10
11083;DHT22;5595;50.186;8.468;2023-06-04T09:09:17;20.50;46.20
11083;DHT22;5595;50.186;8.468;2023-06-04T09:11:50;20.50;46.40
11083;DHT22;5595;50.186;8.468;2023-06-04T09:14:18;20.60;46.50
11083;DHT22;5595;50.186;8.468;2023-06-04T09:16:46;20.70;46.00
11083;DHT22;5595;50.186;8.468;2023-06-04T09:19:13;20.70;46.50
11083;DHT22;5595;50.186;8.468;2023-06-04T09:21:50;20.80;46.30
11083;DHT22;5595;50.186;8.468;2023-06-04T09:24:18;20.90;46.30
11083;DHT22;5595;50.186;8.468;2023-06-04T09:26:46;21.00;46.40
11083;DHT22;5595;50.186;8.468;2023-06-04T09:29:14;21.10;46.40
11083;DHT22;5595;50.186;8.468;2023-06-04T09:31:40;21.20;46.80
11083;DHT22;5595;50.186;8.468;2023-06-04T09:34:07;21.20;46.40
11083;DHT22;5595;50.186;8.468;2023-06-04T09:36:34;21.10;46.10
11083;DHT22;5595;50.186;8.468;2023-06-04T09:39:02;21.10;46.70
11083;DHT22;5595;50.186;8.468;2023-06-04T09:41:32;21.10;46.60
11083;DHT22;5595;50.186;8.468;2023-06-04T09:44:01;21.10;46.80
11083;DHT22;5595;50.186;8.468;2023-06-04T09:46:29;21.10;46.50
11083;DHT22;5595;50.186;8.468;2023-06-04T09:49:00;21.10;46.10
11083;DHT22;5595;50.186;8.468;2023-06-04T09:51:28;21.10;46.40
11083;DHT22;5595;50.186;8.468;2023-06-04T09:53:55;21.20;46.50
11083;DHT22;5595;50.186;8.468;2023-06-04T09:56:23;21.30;47.10
11083;DHT22;5595;50.186;8.468;2023-06-04T09:58:54;21.40;46.80
11083;DHT22;5595;50.186;8.468;2023-06-04T10:01:23;21.40;46.50
11083;DHT22;5595;50.186;8.468;2023-06-04T10:03:51;21.40;47.20
11083;DHT22;5595;50.186;8.468;2023-06-04T10:06:19;21.40;46.00
11083;DHT22;5595;50.186;8.468;2023-06-04T10:08:48;21.40;45.90
11083;DHT22;5595;50.186;8.468;2023-06-04T10:11:18;21.50;46.30
11083;DHT22;5595;50.186;8.468;2023-06-04T10:13:51;21.70;45.30
11083;DHT22;5595;50.186;8.468;2023-06-04T10:16:19;21.60;45.10
11083;DHT22;5595;50.186;8.468;2023-06-04T10:18:47;21.70;45.20
11083;DHT22;5595;50.186;8.468;2023-06-04T10:21:17;21.70;44.30
11083;DHT22;5595;50.186;8.468;2023-06-04T10:23:45;21.50;44.00
11083;DHT22;5595;50.186;8.468;2023-06-04T10:26:14;21.50;44.80
11083;DHT22;5595;50.186;8.468;2023-06-04T10:28:41;21.60;45.20
11083;DHT22;5595;50.186;8.468;2023-06-04T10:31:10;21.60;45.30
11083;DHT22;5595;50.186;8.468;2023-06-04T10:33:38;21.60;45.40
11083;DHT22;5595;50.186;8.468;2023-06-04T10:36:16;21.70;45.00
11083;DHT22;5595;50.186;8.468;2023-06-04T10:38:47;21.80;45.80
11083;DHT22;5595;50.186;8.468;2023-06-04T10:41:15;21.90;45.90
11083;DHT22;5595;50.186;8.468;2023-06-04T10:43:42;21.90;45.90
11083;DHT22;5595;50.186;8.468;2023-06-04T10:46:14;21.90;46.50
11083;DHT22;5595;50.186;8.468;2023-06-04T10:48:48;21.80;44.60
11083;DHT22;5595;50.186;8.468;2023-06-04T10:51:15;21.80;44.80
11083;DHT22;5595;50.186;8.468;2023-06-04T10:53:42;21.80;45.00
11083;DHT22;5595;50.186;8.468;2023-06-04T10:56:09;22.00;45.50
11083;DHT22;5595;50.186;8.468;2023-06-04T10:58:36;22.10;45.70
11083;DHT22;5595;50.186;8.468;2023-06-04T11:01:03;22.10;45.60
11083;DHT22;5595;50.186;8.468;2023-06-04T11:03:38;22.20;46.00
11083;DHT22;5595;50.186;8.468;2023-06-04T11:06:15;22.30;45.80
11083;DHT22;5595;50.186;8.468;2023-06-04T11:08:43;22.30;45.90
11083;DHT22;5595;50.186;8.468;2023-06-04T11:11:11;22.30;46.00
11083;DHT22;5595;50.186;8.468;2023-06-04T11:13:38;22.40;46.00
11083;DHT22;5595;50.186;8.468;2023-06-04T11:16:14;22.40;45.80
11083;DHT22;5595;50.186;8.468;2023-06-04T11:18:42;22.40;46.10
11083;DHT22;5595;50.186;8.468;2023-06-04T11:21:09;22.50;46.20
11083;DHT22;5595;50.186;8.468;2023-06-04T11:23:40;22.50;45.50
11083;DHT22;5595;50.186;8.468;2023-06-04T11:26:07;22.50;45.60
11083;DHT22;5595;50.186;8.468;2023-06-04T11:28:34;22.60;45.50
11083;DHT22;5595;50.186;8.468;2023-06-04T11:31:02;22.60;45.20
11083;DHT22;5595;50.186;8.468;2023-06-04T11:33:42;22.60;45.00
11083;DHT22;5595;50.186;8.468;2023-06-04T11:36:10;22.70;45.40
11083;DHT22;5595;50.186;8.468;2023-06-04T11:38:36;22.70;45.40
11083;DHT22;5595;50.186;8.468;2023-06-04T11:41:03;22.60;44.60
11083;DHT22;5595;50.186;8.468;2023-06-04T11:43:32;22.60;44.40
11083;DHT22;5595;50.186;8.468;2023-06-04T11:46:05;22.70;44.50
11083;DHT22;5595;50.186;8.468;2023-06-04T11:48:32;22.80;44.50
11083;DHT22;5595;50.186;8.468;2023-06-04T11:51:05;22.70;44.40
11083;DHT22;5595;50.186;8.468;2023-06-04T11:53:33;22.60;44.00
11083;DHT22;5595;50.186;8.468;2023-06-04T11:56:00;22.60;44.40
11083;DHT22;5595;50.186;8.468;2023-06-04T11:58:27;22.50;44.50
11083;DHT22;5595;50.186;8.468;2023-06-04T12:00:55;22.50;44.40
11083;DHT22;5595;50.186;8.468;2023-06-04T12:03:33;22.50;44.50
11083;DHT22;5595;50.186;8.468;2023-06-04T12:06:13;22.60;45.00
11083;DHT22;5595;50.186;8.468;2023-06-04T12:08:48;22.60;45.00
11083;DHT22;5595;50.186;8.468;2023-06-04T12:11:26;22.60;45.00
11083;DHT22;5595;50.186;8.468;2023-06-04T12:13:54;22.70;45.00
11083;DHT22;5595;50.186;8.468;2023-06-04T12:16:21;22.70;44.70
11083;DHT22;5595;50.186;8.468;2023-06-04T12:18:48;22.80;44.20
11083;DHT22;5595;50.186;8.468;2023-06-04T12:21:22;22.60;44.00
11083;DHT22;5595;50.186;8.468;2023-06-04T12:23:53;22.50;44.00
11083;DHT22;5595;50.186;8.468;2023-06-04T12:26:21;22.50;44.20
11083;DHT22;5595;50.186;8.468;2023-06-04T12:29:00;22.50;44.20
11083;DHT22;5595;50.186;8.468;2023-06-04T12:31:27;22.60;44.20
11083;DHT22;5595;50.186;8.468;2023-06-04T12:34:00;22.70;44.00
11083;DHT22;5595;50.186;8.468;2023-06-04T12:36:29;22.60;43.20
11083;DHT22;5595;50.186;8.468;2023-06-04T12:38:59;22.60;44.50
11083;DHT22;5595;50.186;8.468;2023-06-04T12:41:26;22.70;44.00
11083;DHT22;5595;50.186;8.468;2023-06-04T12:43:53;22.80;44.10
11083;DHT22;5595;50.186;8.468;2023-06-04T12:46:21;22.80;43.40
11083;DHT22;5595;50.186;8.468;2023-06-04T12:48:49;22.80;43.80
11083;DHT22;5595;50.186;8.468;2023-06-04T12:51:16;22.90;43.60
11083;DHT22;5595;50.186;8.468;2023-06-04T12:53:44;23.00;43.60
11083;DHT22;5595;50.186;8.468;2023-06-04T12:56:11;23.00;43.70
11083;DHT22;5595;50.186;8.468;2023-06-04T12:58:38;23.00;43.70
11083;DHT22;5595;50.186;8.468;2023-06-04T13:01:05;22.90;42.90
11083;DHT22;5595;50.186;8.468;2023-06-04T13:03:33;22.70;43.40
11083;DHT22;5595;50.186;8.468;2023-06-04T13:06:00;22.70;43.70
11083;DHT22;5595;50.186;8.468;2023-06-04T13:08:27;22.70;43.00
11083;DHT22;5595;50.186;8.468;2023-06-04T13:10:55;22.60;42.80
11083;DHT22;5595;50.186;8.468;2023-06-04T13:13:22;22.60;42.90
11083;DHT22;5595;50.186;8.468;2023-06-04T13:15:49;22.50;42.70
11083;DHT22;5595;50.186;8.468;2023-06-04T13:18:16;22.50;42.70
11083;DHT22;5595;50.186;8.468;2023-06-04T13:20:47;22.60;42.80
11083;DHT22;5595;50.186;8.468;2023-06-04T13:23:15;22.60;42.60
11083;DHT22;5595;50.186;8.468;2023-06-04T13:25:48;22.50;42.70
11083;DHT22;5595;50.186;8.468;2023-06-04T13:28:16;22.50;42.40
11083;DHT22;5595;50.186;8.468;2023-06-04T13:30:43;22.50;42.70
11083;DHT22;5595;50.186;8.468;2023-06-04T13:33:10;22.50;42.70
11083;DHT22;5595;50.186;8.468;2023-06-04T13:35:37;22.50;41.80
11083;DHT22;5595;50.186;8.468;2023-06-04T13:38:05;22.50;42.30
11083;DHT22;5595;50.186;8.468;2023-06-04T13:40:33;22.70;42.50
11083;DHT22;5595;50.186;8.468;2023-06-04T13:43:00;22.80;42.60
11083;DHT22;5595;50.186;8.468;2023-06-04T13:45:28;22.90;42.50
11083;DHT22;5595;50.186;8.468;2023-06-04T13:47:55;22.80;41.70
11083;DHT22;5595;50.186;8.468;2023-06-04T13:50:24;22.70;41.70
11083;DHT22;5595;50.186;8.468;2023-06-04T13:52:51;22.70;42.30
11083;DHT22;5595;50.186;8.468;2023-06-04T13:55:18;22.80;42.60
11083;DHT22;5595;50.186;8.468;2023-06-04T13:57:45;22.90;42.40
11083;DHT22;5595;50.186;8.468;2023-06-04T14:00:12;22.90;41.10
11083;DHT22;5595;50.186;8.468;2023-06-04T14:02:41;22.90;40.70
11083;DHT22;5595;50.186;8.468;2023-06-04T14:05:09;22.80;41.10
11083;DHT22;5595;50.186;8.468;2023-06-04T14:07:35;22.80;41.70
11083;DHT22;5595;50.186;8.468;2023-06-04T14:10:03;22.90;42.00
11083;DHT22;5595;50.186;8.468;2023-06-04T14:12:29;23.00;42.20
11083;DHT22;5595;50.186;8.468;2023-06-04T14:14:56;23.00;42.00
11083;DHT22;5595;50.186;8.468;2023-06-04T14:17:23;23.00;42.20
11083;DHT22;5595;50.186;8.468;2023-06-04T14:19:51;23.00;42.30
11083;DHT22;5595;50.186;8.468;2023-06-04T14:22:20;23.00;42.10
11083;DHT22;5595;50.186;8.468;2023-06-04T14:24:47;22.90;42.10
11083;DHT22;5595;50.186;8.468;2023-06-04T14:27:13;22.80;41.80
11083;DHT22;5595;50.186;8.468;2023-06-04T14:29:40;22.90;42.30
11083;DHT22;5595;50.186;8.468;2023-06-04T14:32:07;23.00;42.30
11083;DHT22;5595;50.186;8.468;2023-06-04T14:34:34;23.00;42.50
11083;DHT22;5595;50.186;8.468;2023-06-04T14:37:02;23.00;42.40
11083;DHT22;5595;50.186;8.468;2023-06-04T14:39:29;22.90;42.50
11083;DHT22;5595;50.186;8.468;2023-06-04T14:41:56;22.80;42.60
11083;DHT22;5595;50.186;8.468;2023-06-04T14:44:23;22.80;42.80
11083;DHT22;5595;50.186;8.468;2023-06-04T14:46:50;22.80;43.00
11083;DHT22;5595;50.186;8.468;2023-06-04T14:49:17;22.80;43.30
11083;DHT22;5595;50.186;8.468;2023-06-04T14:51:45;22.90;43.50
11083;DHT22;5595;50.186;8.468;2023-06-04T14:54:13;23.00;43.40
11083;DHT22;5595;50.186;8.468;2023-06-04T14:56:40;23.00;43.10
11083;DHT22;5595;50.186;8.468;2023-06-04T14:59:07;22.90;43.10
11083;DHT22;5595;50.186;8.468;2023-06-04T15:01:37;22.90;43.50
11083;DHT22;5595;50.186;8.468;2023-06-04T15:04:04;23.00;43.60
11083;DHT22;5595;50.186;8.468;2023-06-04T15:06:31;23.00;43.60
11083;DHT22;5595;50.186;8.468;2023-06-04T15:08:58;23.00;43.50
11083;DHT22;5595;50.186;8.468;2023-06-04T15:11:26;23.00;43.40
11083;DHT22;5595;50.186;8.468;2023-06-04T15:13:54;23.00;43.20
11083;DHT22;5595;50.186;8.468;2023-06-04T15:16:21;23.00;43.20
11083;DHT22;5595;50.186;8.468;2023-06-04T15:18:48;22.90;43.10
11083;DHT22;5595;50.186;8.468;2023-06-04T15:21:15;22.90;43.10
11083;DHT22;5595;50.186;8.468;2023-06-04T15:23:41;22.90;43.10
11083;DHT22;5595;50.186;8.468;2023-06-04T15:26:10;22.90;43.10
11083;DHT22;5595;50.186;8.468;2023-06-04T15:28:38;23.00;43.50
11083;DHT22;5595;50.186;8.468;2023-06-04T15:31:05;23.00;43.60
11083;DHT22;5595;50.186;8.468;2023-06-04T15:33:32;23.10;44.00
11083;DHT22;5595;50.186;8.468;2023-06-04T15:35:59;23.10;44.00
11083;DHT22;5595;50.186;8.468;2023-06-04T15:38:26;23.10;44.30
11083;DHT22;5595;50.186;8.468;2023-06-04T15:40:53;23.10;44.40
11083;DHT22;5595;50.186;8.468;2023-06-04T15:43:20;23.10;44.40
11083;DHT22;5595;50.186;8.468;2023-06-04T15:45:48;23.00;44.00
11083;DHT22;5595;50.186;8.468;2023-06-04T15:48:14;22.90;44.60
11083;DHT22;5595;50.186;8.468;2023-06-04T15:50:41;22.90;44.30